Terminal Aerodrome Forecast
Issued by NWS Grand Forks, ND

Home | Current Version | Previous Version | Text Only | Print | Product List | Glossary Off
Versions: 1 2 3 4 5 6 7 8 9 10 11 12 13 14 15 16 17

000
FTUS43 KFGF 272100 AAA
TAFFAR
TAF AMD
KFAR 272135Z 2722/2818 16010KT P6SM OVC050
      TEMPO 2722/2723 3SM -SN BKN030
     FM272300 15008KT P6SM OVC050
     FM280900 16009KT P6SM SCT050
     FM281600 17018G25KT P6SM FEW250=

USA.gov is the U.S. government's official web portal to all federal, state and local government web resources and services.